Time;durP1;ratioP1;P1;durP2;ratioP2;P2;SDS_P1;SDS_P2;PMS_P1;PMS_P2;Temp;Humidity;BMP_temperature;BMP_pressure;BME280_temperature;BME280_humidity;BME280_pressure;Samples;Min_cycle;Max_cycle;Signal;HPM_P1;HPM_P2
2023/05/16 00:01:02;;;;;;;;;;;8.80;99.90;;;;;;5052629;28;20293;-80
2023/05/16 00:03:29;;;;;;;;;;;8.70;99.90;;;;;;5056734;28;20343;-80
2023/05/16 00:05:55;;;;;;;;;;;;;;;;;;5060683;28;19908;-80
2023/05/16 00:08:21;;;;;;;;;;;;;;;;;;5062899;28;20063;-80
2023/05/16 00:10:47;;;;;;;;;;;;;;;;;;5030473;28;20502;-80
2023/05/16 00:13:13;;;;;;;;;;;;;;;;;;5058332;28;19966;-81
2023/05/16 00:15:39;;;;;;;;;;;;;;;;;;5051483;28;20043;-81
2023/05/16 00:18:06;;;;;;;;;;;;;;;;;;5041694;28;19909;-80
2023/05/16 00:20:31;;;;;;;;;;;;;;;;;;5039195;28;19919;-80
2023/05/16 00:23:00;;;;;;;;;;;;;;;;;;5062387;28;19977;-82
2023/05/16 00:25:25;;;;;;;;;;;;;;;;;;5057719;28;19942;-81
2023/05/16 00:27:51;;;;;;;;;;;;;;;;;;5042829;28;20345;-81
2023/05/16 00:30:17;;;;;;;;;;;;;;;;;;5055171;28;19916;-81
2023/05/16 00:32:43;;;;;;;;;;;;;;;;;;5044253;28;19931;-81
2023/05/16 00:35:10;;;;;;;;;;;;;;;;;;5028063;28;20031;-81
2023/05/16 00:37:36;;;;;;;;;;;;;;;;;;5063719;28;19909;-80
2023/05/16 00:40:02;;;;;;;;;;;;;;;;;;5042182;28;19908;-81
2023/05/16 00:42:28;;;;;;;;;;;;;;;;;;5050122;28;19957;-80
2023/05/16 00:44:54;;;;;;;;;;;;;;;;;;5056216;28;19998;-79
2023/05/16 00:47:20;;;;;;;;;;;;;;;;;;5044827;28;20833;-79
2023/05/16 00:49:46;;;;;;;;;;;8.50;99.90;;;;;;5053050;28;19908;-79
2023/05/16 00:52:12;;;;;;;;;;;;;;;;;;5067559;28;19915;-79
2023/05/16 00:54:37;;;;;;;;;;;;;;;;;;5048803;28;19991;-80
2023/05/16 00:57:03;;;;;;;;;;;;;;;;;;5055363;28;20220;-80
2023/05/16 00:59:29;;;;;;;;;;;;;;;;;;5071178;28;20430;-80
2023/05/16 01:01:55;;;;;;;;;;;;;;;;;;5055256;28;19915;-80
2023/05/16 01:04:21;;;;;;;;;;;;;;;;;;5060880;28;20155;-81
2023/05/16 01:06:47;;;;;;;;;;;;;;;;;;5070032;28;19912;-81
2023/05/16 01:09:14;;;;;;;;;;;;;;;;;;5055973;28;19915;-80
2023/05/16 01:11:40;;;;;;;;;;;;;;;;;;5064175;28;19921;-81
2023/05/16 01:14:05;;;;;;;;;;;;;;;;;;5058387;28;19908;-79
2023/05/16 01:16:31;;;;;;;;;;;;;;;;;;5042132;28;19908;-80
2023/05/16 01:18:57;;;;;;;;;;;;;;;;;;5047192;28;19957;-80
2023/05/16 01:21:24;;;;;;;;;;;;;;;;;;5053182;28;20090;-81
2023/05/16 01:23:50;;;;;;;;;;;;;;;;;;5060024;28;19908;-80
2023/05/16 01:26:16;;;;;;;;;;;;;;;;;;5039766;28;20442;-80
2023/05/16 01:28:41;;;;;;;;;;;;;;;;;;5047745;28;19911;-81
2023/05/16 01:31:07;;;;;;;;;;;;;;;;;;5064485;28;19917;-81
2023/05/16 01:33:33;;;;;;;;;;;;;;;;;;5049071;28;19991;-81
2023/05/16 01:35:59;;;;;;;;;;;;;;;;;;5055300;28;19935;-81
2023/05/16 01:38:25;;;;;;;;;;;;;;;;;;5053120;28;19913;-81
2023/05/16 01:40:51;;;;;;;;;;;;;;;;;;5054886;28;19979;-81
2023/05/16 01:43:17;;;;;;;;;;;;;;;;;;5050344;28;20019;-81
2023/05/16 01:45:43;;;;;;;;;;;;;;;;;;5041941;28;19919;-81
2023/05/16 01:48:09;;;;;;;;;;;;;;;;;;5058213;28;19908;-80
2023/05/16 01:50:35;;;;;;;;;;;;;;;;;;5055763;28;19939;-81
2023/05/16 01:53:01;;;;;;;;;;;;;;;;;;5056428;28;20395;-81
2023/05/16 01:55:27;;;;;;;;;;;;;;;;;;5068307;28;20007;-81
2023/05/16 01:57:53;;;;;;;;;;;;;;;;;;5061303;28;22327;-81
2023/05/16 02:00:19;;;;;;;;;;;;;;;;;;5040268;28;19982;-79
2023/05/16 02:02:45;;;;;;;;;;;;;;;;;;5058699;28;19908;-79
2023/05/16 02:05:11;;;;;;;;;;;;;;;;;;5045161;28;19919;-80
2023/05/16 02:07:37;;;;;;;;;;;;;;;;;;5052463;28;19923;-81
2023/05/16 02:10:03;;;;;;;;;;;;;;;;;;5045638;28;20383;-81
2023/05/16 02:12:29;;;;;;;;;;;;;;;;;;5055122;28;19939;-79
2023/05/16 02:14:55;;;;;;;;;;;;;;;;;;5041855;28;20483;-81
2023/05/16 02:17:21;;;;;;;;;;;;;;;;;;5050544;28;20393;-80
2023/05/16 02:19:47;;;;;;;;;;;;;;;;;;5066690;28;19919;-80
2023/05/16 02:22:12;;;;;;;;;;;7.10;99.90;;;;;;5068573;28;19916;-79
2023/05/16 02:24:38;;;;;;;;;;;;;;;;;;5078220;28;20008;-80
2023/05/16 02:27:04;;;;;;;;;;;;;;;;;;5048167;28;19908;-80
2023/05/16 02:29:30;;;;;;;;;;;;;;;;;;5077162;28;21852;-80
2023/05/16 02:31:56;;;;;;;;;;;;;;;;;;5043548;28;19916;-81
2023/05/16 02:34:21;;;;;;;;;;;8.00;99.90;;;;;;5071797;28;19912;-80
2023/05/16 02:36:47;;;;;;;;;;;;;;;;;;5051737;28;19923;-81
2023/05/16 02:39:13;;;;;;;;;;;;;;;;;;5070823;28;20360;-80
2023/05/16 02:41:39;;;;;;;;;;;;;;;;;;5064767;28;19916;-81
2023/05/16 02:44:05;;;;;;;;;;;;;;;;;;5051970;28;20173;-79
2023/05/16 02:46:31;;;;;;;;;;;;;;;;;;5043494;28;19908;-79
2023/05/16 02:48:57;;;;;;;;;;;;;;;;;;5054493;28;19916;-81
2023/05/16 02:51:23;;;;;;;;;;;;;;;;;;5053084;28;20262;-80
2023/05/16 02:53:48;;;;;;;;;;;8.20;99.90;;;;;;5062972;28;19965;-80
2023/05/16 02:56:14;;;;;;;;;;;;;;;;;;5060333;28;19920;-80
2023/05/16 02:58:40;;;;;;;;;;;;;;;;;;5062939;28;19915;-81
2023/05/16 03:01:06;;;;;;;;;;;8.00;99.90;;;;;;5063271;28;19908;-80
2023/05/16 03:03:34;;;;;;;;;;;8.00;99.90;;;;;;5070336;28;20359;-80
2023/05/16 03:06:00;;;;;;;;;;;;;;;;;;5056099;28;19916;-81
2023/05/16 03:08:25;;;;;;;;;;;;;;;;;;5061672;28;20356;-81
2023/05/16 03:10:51;;;;;;;;;;;;;;;;;;5045554;28;19954;-81
2023/05/16 03:13:17;;;;;;;;;;;;;;;;;;5058781;28;19927;-80
2023/05/16 03:15:43;;;;;;;;;;;;;;;;;;5049372;28;19916;-81
2023/05/16 03:18:10;;;;;;;;;;;;;;;;;;5060052;28;21436;-81
2023/05/16 03:20:36;;;;;;;;;;;8.20;99.90;;;;;;5062120;28;20353;-80
2023/05/16 03:23:01;;;;;;;;;;;8.10;99.90;;;;;;5074351;28;19950;-80
2023/05/16 03:25:27;;;;;;;;;;;;;;;;;;5050777;28;19947;-81
2023/05/16 03:27:53;;;;;;;;;;;;;;;;;;5062770;28;21162;-81
2023/05/16 03:30:19;;;;;;;;;;;;;;;;;;5048001;28;20050;-81
2023/05/16 03:32:46;;;;;;;4.15;2.70;;;;;;;;;;5050227;28;20148;-81
2023/05/16 03:35:11;;;;;;;6.32;4.15;;;;;;;;;;5048557;28;20028;-82
2023/05/16 03:37:38;;;;;;;8.80;3.67;;;;;;;;;;5049789;28;20237;-82
2023/05/16 03:40:04;;;;;;;7.15;4.18;;;;;;;;;;5037857;28;20837;-81
2023/05/16 03:42:31;;;;;;;6.88;4.28;;;;;;;;;;5066185;28;20441;-81
2023/05/16 03:44:57;;;;;;;8.57;4.43;;;;;;;;;;5066194;28;20116;-81
2023/05/16 03:47:23;;;;;;;6.32;3.63;;;;;;;;;;5032797;28;20095;-82
2023/05/16 03:49:49;;;;;;;4.82;3.65;;;;;;;;;;5032857;28;20032;-81
2023/05/16 03:52:15;;;;;;;14.52;4.22;;;;;;;;;;5046626;28;20025;-83
2023/05/16 03:54:41;;;;;;;7.40;4.43;;;;;;;;;;5066188;28;22700;-81
2023/05/16 03:57:07;;;;;;;7.43;4.18;;;;;;;;;;5058613;28;20043;-82
2023/05/16 03:59:33;;;;;;;10.07;4.55;;;;;;;;;;5058910;28;20028;-80
2023/05/16 04:01:59;;;;;;;5.90;3.72;;;;;;;;;;5031110;28;20074;-81
2023/05/16 04:04:25;;;;;;;6.68;4.43;;;;;;;;;;5043313;28;20028;-80
2023/05/16 04:06:51;;;;;;;8.05;4.82;;;;;;;;;;5073821;28;20028;-80
2023/05/16 04:09:18;;;;;;;10.38;4.20;;;;;;;;;;5065497;28;20036;-80
2023/05/16 04:11:44;;;;;;;9.25;4.45;;;;;;;;;;5054555;28;20037;-80
2023/05/16 04:14:10;;;;;;;8.25;4.15;;;;;;;;;;5060069;28;20028;-80
2023/05/16 04:16:36;;;;;;;8.55;4.70;;;;;;;;;;5045868;28;20033;-82
2023/05/16 04:19:02;;;;;;;9.32;5.50;;;;;;;;;;5046368;28;20056;-81
2023/05/16 04:21:28;;;;;;;10.13;4.40;;;;;;;;;;5055222;28;20021;-80
2023/05/16 04:23:54;;;;;;;7.13;3.97;;;8.80;99.90;;;;;;5057840;28;20024;-82
2023/05/16 04:26:21;;;;;;;7.63;4.70;;;;;;;;;;5058809;28;20040;-82
2023/05/16 04:28:47;;;;;;;7.30;4.43;;;;;;;;;;5061938;28;21406;-81
2023/05/16 04:31:13;;;;;;;10.38;5.00;;;;;;;;;;5053216;28;20122;-82
2023/05/16 04:33:40;;;;;;;7.95;4.63;;;;;;;;;;5042956;28;20423;-81
2023/05/16 04:36:06;;;;;;;5.57;3.13;;;;;;;;;;5053046;28;20016;-80
2023/05/16 04:38:32;;;;;;;7.78;4.25;;;;;;;;;;5057677;28;20503;-81
2023/05/16 04:40:58;;;;;;;7.38;4.15;;;;;;;;;;5049071;28;20020;-82
2023/05/16 04:43:24;;;;;;;5.22;3.55;;;;;;;;;;5059382;28;20081;-81
2023/05/16 04:45:52;;;;;;;7.03;4.63;;;;;;;;;;5042299;28;20040;-81
2023/05/16 04:48:18;;;;;;;7.82;3.75;;;;;;;;;;5042911;28;20031;-82
2023/05/16 04:50:44;;;;;;;8.63;3.38;;;;;;;;;;5049014;28;20107;-81
2023/05/16 04:53:10;;;;;;;8.05;4.20;;;9.90;99.90;;;;;;5049823;28;20028;-82
2023/05/16 04:55:36;;;;;;;5.85;3.63;;;;;;;;;;5062958;28;20027;-82
2023/05/16 04:58:03;;;;;;;6.47;4.03;;;;;;;;;;5058224;28;20262;-82
2023/05/16 05:00:29;;;;;;;7.22;3.50;;;;;;;;;;5049505;28;20028;-82
2023/05/16 05:02:55;;;;;;;9.60;4.28;;;;;;;;;;5045936;28;20025;-82
2023/05/16 05:05:21;;;;;;;14.85;4.50;;;;;;;;;;5050222;28;20048;-81
2023/05/16 05:07:47;;;;;;;6.55;3.85;;;;;;;;;;5050481;28;20422;-80
2023/05/16 05:10:13;;;;;;;6.00;3.55;;;;;;;;;;5063728;28;20504;-81
2023/05/16 05:12:39;;;;;;;5.47;3.63;;;;;;;;;;5066930;28;20098;-81
2023/05/16 05:15:07;;;;;;;7.90;4.78;;;;;;;;;;5040848;28;20115;-80
2023/05/16 05:17:33;;;;;;;6.78;3.45;;;;;;;;;;5048419;28;20048;-81
2023/05/16 05:19:59;;;;;;;6.38;4.00;;;;;;;;;;5059376;28;20060;-82
2023/05/16 05:22:25;;;;;;;7.07;4.07;;;;;;;;;;5040913;28;20025;-81
2023/05/16 05:24:51;;;;;;;14.18;4.63;;;;;;;;;;5060684;28;20032;-81
2023/05/16 05:27:17;;;;;;;4.63;3.63;;;;;;;;;;5062225;28;20036;-81
2023/05/16 05:29:43;;;;;;;6.35;3.83;;;;;;;;;;5053624;28;20032;-82
2023/05/16 05:32:09;;;;;;;7.97;4.07;;;;;;;;;;5060670;28;20035;-81
2023/05/16 05:34:35;;;;;;;6.22;3.30;;;;;;;;;;5055613;28;20082;-81
2023/05/16 05:37:01;;;;;;;9.90;3.95;;;;;;;;;;5066482;28;20047;-80
2023/05/16 05:39:27;;;;;;;7.20;3.42;;;;;;;;;;5066252;28;20025;-81
2023/05/16 05:41:53;;;;;;;9.85;4.97;;;;;;;;;;5055624;28;20119;-80
2023/05/16 05:44:19;;;;;;;6.82;4.63;;;;;;;;;;5062167;28;20033;-80
2023/05/16 05:46:45;;;;;;;11.95;4.93;;;;;;;;;;5074488;28;20074;-80
2023/05/16 05:49:11;;;;;;;6.47;3.67;;;;;;;;;;5052875;28;20024;-80
2023/05/16 05:51:37;;;;;;;8.75;4.10;;;;;;;;;;5068515;28;20540;-80
2023/05/16 05:54:03;;;;;;;9.70;3.85;;;;;;;;;;5067294;28;20132;-80
2023/05/16 05:56:29;;;;;;;8.80;4.57;;;;;;;;;;5051216;28;20037;-81
2023/05/16 05:58:55;;;;;;;9.80;4.95;;;;;;;;;;5061064;28;20070;-81
2023/05/16 06:01:22;;;;;;;13.68;4.35;;;;;;;;;;5059512;28;20024;-81
2023/05/16 06:03:48;;;;;;;10.07;4.45;;;;;;;;;;5064734;28;20037;-81
2023/05/16 06:06:14;;;;;;;12.98;5.63;;;;;;;;;;5050246;28;20377;-80
2023/05/16 06:08:40;;;;;;;9.05;4.72;;;;;;;;;;5072788;28;20810;-81
2023/05/16 06:11:07;;;;;;;9.05;4.80;;;;;;;;;;5069326;28;20481;-80
2023/05/16 06:13:32;;;;;;;8.18;4.45;;;10.30;99.90;;;;;;5070650;28;20534;-80
2023/05/16 06:15:58;;;;;;;8.05;4.50;;;;;;;;;;5042839;28;20028;-80
2023/05/16 06:18:24;;;;;;;8.80;5.43;;;;;;;;;;5065775;28;20063;-81
2023/05/16 06:20:52;;;;;;;10.00;4.28;;;;;;;;;;5047392;28;20094;-80
2023/05/16 06:23:18;;;;;;;8.43;3.75;;;10.70;99.90;;;;;;5067460;28;20085;-80
2023/05/16 06:25:44;;;;;;;10.57;3.88;;;;;;;;;;5055956;28;20086;-81
2023/05/16 06:28:10;;;;;;;13.13;6.43;;;10.40;99.90;;;;;;5045945;28;20028;-80
2023/05/16 06:30:36;;;;;;;7.40;4.35;;;;;;;;;;5066509;28;20534;-80
2023/05/16 06:33:02;;;;;;;8.02;4.47;;;;;;;;;;5080916;28;20054;-80
2023/05/16 06:35:27;;;;;;;11.70;5.07;;;;;;;;;;5074392;28;20025;-81
2023/05/16 06:37:53;;;;;;;9.40;4.93;;;;;;;;;;5072954;28;20026;-82
2023/05/16 06:40:19;;;;;;;11.05;4.75;;;;;;;;;;5053272;28;20627;-82
2023/05/16 06:42:45;;;;;;;8.73;4.47;;;;;;;;;;5081285;28;20472;-82
2023/05/16 06:45:11;;;;;;;9.32;3.92;;;;;;;;;;5059800;28;20037;-81
2023/05/16 06:47:37;;;;;;;7.88;4.63;;;;;;;;;;5054120;28;20047;-82
2023/05/16 06:50:03;;;;;;;16.48;6.40;;;;;;;;;;5054705;28;20060;-80
2023/05/16 06:52:30;;;;;;;9.90;6.00;;;;;;;;;;5047528;28;20028;-80
2023/05/16 06:54:56;;;;;;;15.05;5.57;;;;;;;;;;5074980;28;20029;-79
2023/05/16 06:57:22;;;;;;;9.50;4.85;;;;;;;;;;5064504;28;20028;-81
2023/05/16 06:59:47;;;;;;;15.73;5.43;;;;;;;;;;5059636;28;20120;-79
2023/05/16 07:02:13;;;;;;;7.90;4.70;;;;;;;;;;5067309;28;20021;-81
2023/05/16 07:04:39;;;;;;;10.80;5.72;;;;;;;;;;5045074;28;20032;-80
2023/05/16 07:07:06;;;;;;;9.65;5.63;;;;;;;;;;5067053;28;20615;-80
2023/05/16 07:09:33;;;;;;;11.40;5.85;;;;;;;;;;5050316;28;20090;-80
2023/05/16 07:11:59;;;;;;;11.90;6.53;;;;;;;;;;5067236;28;20041;-80
2023/05/16 07:14:24;;;;;;;10.88;5.20;;;;;;;;;;5065023;28;20039;-80
2023/05/16 07:16:50;;;;;;;11.68;5.50;;;;;;;;;;5053375;28;20119;-81
2023/05/16 07:19:16;;;;;;;11.02;6.43;;;;;;;;;;5067872;28;20306;-80
2023/05/16 07:21:42;;;;;;;12.27;5.57;;;;;;;;;;5059758;28;20025;-80
2023/05/16 07:24:08;;;;;;;10.75;5.20;;;;;;;;;;5061153;28;20079;-80
2023/05/16 07:26:34;;;;;;;10.77;6.63;;;;;;;;;;5072935;28;20028;-80
2023/05/16 07:29:01;;;;;;;15.00;5.75;;;;;;;;;;5064821;28;20032;-80
2023/05/16 07:31:27;;;;;;;13.20;6.90;;;;;;;;;;5051998;28;20407;-80
2023/05/16 07:33:54;;;;;;;14.55;6.68;;;;;;;;;;5063561;28;20087;-81
2023/05/16 07:36:20;;;;;;;12.57;6.15;;;;;;;;;;5063935;28;20032;-80
2023/05/16 07:38:46;;;;;;;11.90;5.93;;;;;;;;;;5065096;28;20058;-81
2023/05/16 07:41:12;;;;;;;12.23;6.80;;;;;;;;;;5069179;28;20416;-81
2023/05/16 07:43:38;;;;;;;11.88;6.53;;;;;;;;;;5063095;28;20081;-80
2023/05/16 07:46:05;;;;;;;26.63;12.32;;;;;;;;;;5055879;28;20029;-81
2023/05/16 07:48:31;;;;;;;26.30;12.07;;;;;;;;;;5063298;28;20033;-81
2023/05/16 07:50:57;;;;;;;40.65;17.50;;;13.50;99.90;;;;;;5072331;28;20043;-82
2023/05/16 07:53:23;;;;;;;15.52;8.75;;;;;;;;;;5049736;28;20071;-82
2023/05/16 07:55:50;;;;;;;14.05;7.47;;;;;;;;;;5017243;28;1151714;-82
2023/05/16 07:58:16;;;;;;;14.00;6.18;;;;;;;;;;5078389;28;20024;-82
2023/05/16 08:00:42;;;;;;;12.65;6.50;;;;;;;;;;5068783;28;20476;-82
2023/05/16 08:03:08;;;;;;;9.93;5.90;;;;;;;;;;5069132;28;20037;-81
2023/05/16 08:05:34;;;;;;;13.50;6.20;;;;;;;;;;5066666;28;20021;-82
2023/05/16 08:08:00;;;;;;;13.43;7.28;;;;;;;;;;5061150;28;20063;-81
2023/05/16 08:10:26;;;;;;;14.15;7.60;;;;;;;;;;5045385;28;20033;-81
2023/05/16 08:12:52;;;;;;;11.85;5.90;;;;;;;;;;5072391;28;20024;-82
2023/05/16 08:15:18;;;;;;;12.68;6.97;;;;;;;;;;5053423;28;20116;-82
2023/05/16 08:17:44;;;;;;;10.77;5.78;;;12.60;99.90;;;;;;5049918;28;20059;-81
2023/05/16 08:20:10;;;;;;;11.23;6.10;;;;;;;;;;5054225;28;20472;-81
2023/05/16 08:22:36;;;;;;;12.80;6.55;;;;;;;;;;5052728;28;20052;-82
2023/05/16 08:25:04;;;;;;;19.35;7.22;;;;;;;;;;5068179;28;20032;-81
2023/05/16 08:27:30;;;;;;;15.48;7.28;;;;;;;;;;5053167;28;20036;-83
2023/05/16 08:29:55;;;;;;;18.90;6.43;;;;;;;;;;5063979;28;20085;-81
2023/05/16 08:32:22;;;;;;;13.88;5.32;;;;;;;;;;5051798;28;20509;-81
2023/05/16 08:34:48;;;;;;;17.13;6.30;;;;;;;;;;5068420;28;20119;-83
2023/05/16 08:37:14;;;;;;;11.23;5.60;;;;;;;;;;5055941;28;20115;-81
2023/05/16 08:39:40;;;;;;;10.93;5.75;;;;;;;;;;5062156;28;20073;-81
2023/05/16 08:42:06;;;;;;;11.48;5.70;;;;;;;;;;5058245;28;20024;-82
2023/05/16 08:44:33;;;;;;;11.48;5.93;;;;;;;;;;5050073;28;20040;-82
2023/05/16 08:47:11;;;;;;;10.93;5.78;;;;;;;;;;5068570;28;20093;-81
2023/05/16 08:49:39;;;;;;;9.90;5.88;;;12.40;99.90;;;;;;5052307;28;20032;-81
2023/05/16 08:52:07;;;;;;;13.30;6.68;;;;;;;;;;5072244;28;20032;-82
2023/05/16 08:54:33;;;;;;;12.13;6.22;;;;;;;;;;5040504;28;20369;-81
2023/05/16 08:57:01;;;;;;;12.30;6.75;;;;;;;;;;5068238;28;20028;-81
2023/05/16 08:59:27;;;;;;;14.90;6.15;;;;;;;;;;5067838;28;20158;-81
2023/05/16 09:01:53;;;;;;;10.38;5.30;;;;;;;;;;5059513;28;20522;-81
2023/05/16 09:04:19;;;;;;;11.73;5.60;;;;;;;;;;5074658;28;20944;-82
2023/05/16 09:06:45;;;;;;;11.10;6.10;;;;;;;;;;5071501;28;20020;-81
2023/05/16 09:09:11;;;;;;;10.27;4.95;;;;;;;;;;5039765;28;20402;-81
2023/05/16 09:11:38;;;;;;;9.95;5.57;;;;;;;;;;5053872;28;20032;-82
2023/05/16 09:14:05;;;;;;;12.07;5.45;;;;;;;;;;5053103;28;20032;-83
2023/05/16 09:16:31;;;;;;;9.20;4.88;;;;;;;;;;5043774;28;20039;-82
2023/05/16 09:18:59;;;;;;;10.35;4.63;;;13.20;99.90;;;;;;5068083;28;20028;-81
2023/05/16 09:21:30;;;;;;;9.45;4.97;;;13.30;99.90;;;;;;5071072;28;20024;-82
2023/05/16 09:24:01;;;;;;;12.63;5.10;;;13.70;99.90;;;;;;5047747;28;20028;-82
2023/05/16 09:26:27;;;;;;;12.30;5.13;;;;;;;;;;5067401;28;20028;-82
2023/05/16 09:28:54;;;;;;;8.85;4.65;;;;;;;;;;5050390;28;20416;-82
2023/05/16 09:31:25;;;;;;;9.15;5.00;;;13.30;99.90;;;;;;5068343;28;20349;-82
2023/05/16 09:33:52;;;;;;;10.05;4.57;;;;;;;;;;5050118;28;20032;-82
2023/05/16 09:36:18;;;;;;;9.90;4.13;;;;;;;;;;5063900;28;20024;-81
2023/05/16 09:38:44;;;;;;;6.65;3.72;;;;;;;;;;5050069;28;20055;-81
2023/05/16 09:41:10;;;;;;;10.90;4.80;;;;;;;;;;5062700;28;20029;-81
2023/05/16 09:43:40;;;;;;;13.43;3.97;;;;;;;;;;5067518;28;20098;-81
2023/05/16 09:46:06;;;;;;;13.05;4.97;;;;;;;;;;5068855;28;20479;-81
2023/05/16 09:48:33;;;;;;;9.93;4.88;;;;;;;;;;5046526;28;20035;-81
2023/05/16 09:51:03;;;;;;;8.60;5.25;;;;;;;;;;5062658;28;20119;-82
2023/05/16 09:53:32;;;;;;;7.32;3.70;;;;;;;;;;5049952;28;20032;-82
2023/05/16 09:56:06;;;;;;;8.05;3.00;;;;;;;;;;5068021;28;20033;-81
2023/05/16 09:58:33;;;;;;;8.65;4.25;;;;;;;;;;5051852;28;20491;-82
2023/05/16 10:01:00;;;;;;;8.15;4.72;;;;;;;;;;5055001;28;20025;-81
2023/05/16 10:03:26;;;;;;;10.65;5.38;;;;;;;;;;5061993;28;20447;-82
2023/05/16 10:05:53;;;;;;;15.15;7.72;;;;;;;;;;5049015;28;20029;-81
2023/05/16 10:08:23;;;;;;;9.30;5.15;;;;;;;;;;5066171;28;20103;-81
2023/05/16 10:10:56;;;;;;;14.10;6.63;;;;;;;;;;5065072;28;20037;-82
2023/05/16 10:13:23;;;;;;;19.35;8.63;;;;;;;;;;5076107;28;20036;-81
2023/05/16 10:15:49;;;;;;;7.50;4.28;;;;;;;;;;5057281;28;20620;-82
2023/05/16 10:18:18;;;;;;;8.57;5.85;;;;;;;;;;5046743;28;20031;-82
2023/05/16 10:20:48;;;;;;;14.43;7.00;;;14.00;99.90;;;;;;5068887;28;20032;-82
2023/05/16 10:23:20;;;;;;;8.75;4.88;;;14.30;99.90;;;;;;5062633;28;20021;-84
2023/05/16 10:25:47;;;;;;;10.27;5.28;;;;;;;;;;5067402;28;20032;-81
2023/05/16 10:28:14;;;;;;;8.38;4.22;;;;;;;;;;5062301;28;20381;-82
2023/05/16 10:30:42;;;;;;;9.85;4.18;;;;;;;;;;5040154;28;20052;-83
2023/05/16 10:33:09;;;;;;;7.30;4.32;;;;;;;;;;5068057;28;20021;-82
2023/05/16 10:35:35;;;;;;;8.50;4.03;;;;;;;;;;5037989;28;20025;-82
2023/05/16 10:38:02;;;;;;;10.85;4.80;;;14.20;99.90;;;;;;5047932;28;20851;-82
2023/05/16 10:40:29;;;;;;;9.15;4.95;;;14.20;99.90;;;;;;5038253;28;20295;-82
2023/05/16 10:42:58;;;;;;;7.38;4.35;;;;;;;;;;5059451;28;20029;-82
2023/05/16 10:45:24;;;;;;;7.50;4.57;;;14.50;99.90;;;;;;5055594;28;20527;-82
2023/05/16 10:47:51;;;;;;;8.93;4.57;;;;;;;;;;5065819;28;20120;-82
2023/05/16 10:50:30;;;;;;;8.65;4.05;;;;;;;;;;5047865;28;20541;-82
2023/05/16 10:52:56;;;;;;;8.52;4.00;;;;;;;;;;5061976;28;20040;-82
2023/05/16 10:55:22;;;;;;;9.95;4.80;;;;;;;;;;5065898;28;20098;-82
2023/05/16 10:57:48;;;;;;;6.10;4.20;;;;;;;;;;5068564;28;20060;-82
2023/05/16 11:00:21;;;;;;;6.78;4.03;;;14.30;99.90;;;;;;5068781;28;20028;-81
2023/05/16 11:02:47;;;;;;;9.93;5.35;;;;;;;;;;5076320;28;20426;-82
2023/05/16 11:05:18;;;;;;;10.65;4.13;;;;;;;;;;5062060;28;20144;-81
2023/05/16 11:07:44;;;;;;;10.77;4.03;;;;;;;;;;5060794;28;20035;-80
2023/05/16 11:10:14;;;;;;;6.95;4.53;;;;;;;;;;5065326;28;20492;-80
2023/05/16 11:12:44;;;;;;;7.85;4.20;;;;;;;;;;5050032;28;20028;-80
2023/05/16 11:15:17;;;;;;;7.88;4.20;;;13.50;99.90;;;;;;5044946;28;20029;-81
2023/05/16 11:17:43;;;;;;;;;;;;;;;;;;5069865;28;20761;-81
2023/05/16 11:20:24;;;;;;;10.18;4.40;;;;;;;;;;5068819;28;20505;-81
2023/05/16 11:22:50;;;;;;;13.27;4.18;;;13.60;99.90;;;;;;5042696;28;20411;-81
2023/05/16 11:25:33;;;;;;;8.70;4.20;;;14.00;99.90;;;;;;5065540;28;20115;-80
2023/05/16 11:27:59;;;;;;;8.77;4.85;;;;;;;;;;5068046;28;20052;-82
2023/05/16 11:30:25;;;;;;;10.15;4.53;;;;;;;;;;5053134;28;20047;-81
2023/05/16 11:32:51;;;;;;;6.32;3.58;;;;;;;;;;5062145;28;20110;-81
2023/05/16 11:35:18;;;;;;;9.35;4.65;;;;;;;;;;5053324;28;20021;-82
2023/05/16 11:37:45;;;;;;;7.65;3.45;;;13.60;99.90;;;;;;5054815;28;20103;-81
2023/05/16 11:40:12;;;;;;;15.43;4.13;;;;;;;;;;5066746;28;20024;-81
2023/05/16 11:42:40;;;;;;;6.97;3.58;;;;;;;;;;5058586;28;20039;-80
2023/05/16 11:45:11;;;;;;;7.65;4.45;;;;;;;;;;5057928;28;20408;-81
2023/05/16 11:47:37;;;;;;;12.23;4.18;;;;;;;;;;5076117;28;20039;-81
2023/05/16 11:50:09;;;;;;;5.97;3.05;;;;;;;;;;5059423;28;20104;-82
2023/05/16 11:52:35;;;;;;;8.50;3.80;;;;;;;;;;5063189;28;20078;-82
2023/05/16 11:55:02;;;;;;;8.38;3.78;;;;;;;;;;5065369;28;20046;-80
2023/05/16 11:57:28;;;;;;;5.35;2.70;;;;;;;;;;5072811;28;20024;-80
2023/05/16 11:59:54;;;;;;;6.43;2.55;;;;;;;;;;5064845;28;20079;-81
2023/05/16 12:02:20;;;;;;;8.43;2.88;;;;;;;;;;5080744;28;20033;-80
2023/05/16 12:04:49;;;;;;;4.47;2.35;;;;;;;;;;5052533;28;20024;-80
2023/05/16 12:07:15;;;;;;;3.45;2.30;;;;;;;;;;5053981;28;20546;-80
2023/05/16 12:09:41;;;;;;;5.68;2.97;;;;;;;;;;5069320;28;20032;-82
2023/05/16 12:12:07;;;;;;;7.82;2.75;;;;;;;;;;5068243;28;20036;-80
2023/05/16 12:14:33;;;;;;;5.10;2.63;;;;;;;;;;5072847;28;20115;-82
2023/05/16 12:17:00;;;;;;;4.97;2.75;;;;;;;;;;5064652;28;20016;-81
2023/05/16 12:19:25;;;;;;;5.82;2.60;;;13.90;99.90;;;;;;5072493;28;20565;-80
2023/05/16 12:21:53;;;;;;;7.55;2.85;;;;;;;;;;5044895;28;20123;-80
2023/05/16 12:24:19;;;;;;;4.18;2.10;;;;;;;;;;5050251;28;20020;-80
2023/05/16 12:26:45;;;;;;;6.38;2.17;;;;;;;;;;5068515;28;20039;-80
2023/05/16 12:29:11;;;;;;;3.80;1.98;;;;;;;;;;5055733;28;20038;-80
2023/05/16 12:31:39;;;;;;;4.68;1.77;;;13.30;99.90;;;;;;5043123;28;20050;-80
2023/05/16 12:34:14;;;;;;;3.97;1.83;;;;;;;;;;5063822;28;20029;-81
2023/05/16 12:36:41;;;;;;;4.90;2.63;;;;;;;;;;5066354;28;20101;-79
2023/05/16 12:39:08;;;;;;;11.52;1.98;;;;;;;;;;5048453;28;20544;-80
2023/05/16 12:41:41;;;;;;;5.40;2.35;;;12.70;99.90;;;;;;5064991;28;20024;-79
2023/05/16 12:44:12;;;;;;;7.32;2.80;;;;;;;;;;5058438;28;20111;-80
2023/05/16 12:46:42;;;;;;;3.30;1.67;;;;;;;;;;5035546;28;20036;-79
2023/05/16 12:49:08;;;;;;;4.20;2.13;;;;;;;;;;5057528;28;20029;-80
2023/05/16 12:51:34;;;;;;;2.22;1.10;;;;;;;;;;5051528;28;20405;-80
2023/05/16 12:54:07;;;;;;;2.10;0.90;;;;;;;;;;5057680;28;20054;-79
2023/05/16 12:56:33;;;;;;;4.30;1.00;;;;;;;;;;5057396;28;20163;-80
2023/05/16 12:59:00;;;;;;;2.63;0.85;;;;;;;;;;5041439;28;20055;-79
2023/05/16 13:01:25;;;;;;;1.73;0.90;;;;;;;;;;5048357;28;20044;-79
2023/05/16 13:03:52;;;;;;;1.23;0.70;;;;;;;;;;5052967;28;20496;-80
2023/05/16 13:06:18;;;;;;;1.55;0.63;;;;;;;;;;5065815;28;20060;-79
2023/05/16 13:08:44;;;;;;;1.58;0.70;;;;;;;;;;5047722;28;20399;-78
2023/05/16 13:11:10;;;;;;;1.63;0.80;;;;;;;;;;5055250;28;20153;-79
2023/05/16 13:13:36;;;;;;;2.05;0.60;;;;;;;;;;5068960;28;20433;-79
2023/05/16 13:16:03;;;;;;;0.60;0.50;;;;;;;;;;5059136;28;20028;-80
2023/05/16 13:18:30;;;;;;;2.53;1.33;;;;;;;;;;5044076;28;20021;-80
2023/05/16 13:20:56;;;;;;;0.98;0.70;;;;;;;;;;5065605;28;20480;-79
2023/05/16 13:23:22;;;;;;;1.67;0.60;;;;;;;;;;5065880;28;20039;-79
2023/05/16 13:25:48;;;;;;;3.40;1.02;;;;;;;;;;5046065;28;20125;-79
2023/05/16 13:28:14;;;;;;;2.10;0.85;;;;;;;;;;5068700;28;20037;-79
2023/05/16 13:30:40;;;;;;;2.50;0.63;;;;;;;;;;5049166;28;20060;-79
2023/05/16 13:33:06;;;;;;;1.27;0.70;;;;;;;;;;5056331;28;20162;-79
2023/05/16 13:35:35;;;;;;;4.35;1.38;;;;;;;;;;5056484;28;20063;-79
2023/05/16 13:38:02;;;;;;;2.70;0.82;;;;;;;;;;5059205;28;20032;-79
2023/05/16 13:40:28;;;;;;;1.08;0.70;;;;;;;;;;5058463;28;20043;-79
2023/05/16 13:42:55;;;;;;;1.00;0.50;;;;;;;;;;5042570;28;20111;-80
2023/05/16 13:45:21;;;;;;;2.72;1.08;;;15.00;99.90;;;;;;5064861;28;20408;-79
2023/05/16 13:47:47;;;;;;;1.45;0.70;;;;;;;;;;5056865;28;20094;-79
2023/05/16 13:50:13;;;;;;;1.20;0.77;;;;;;;;;;5052846;28;20087;-81
2023/05/16 13:52:39;;;;;;;3.17;1.27;;;;;;;;;;5044121;28;20431;-80
2023/05/16 13:55:06;;;;;;;2.67;0.77;;;;;;;;;;5067437;28;20094;-81
2023/05/16 13:57:32;;;;;;;2.83;0.80;;;;;;;;;;5047510;28;20295;-81
2023/05/16 13:59:58;;;;;;;1.55;0.70;;;;;;;;;;5042351;28;20033;-79
2023/05/16 14:02:25;;;;;;;1.58;0.60;;;;;;;;;;5074745;28;20460;-80
2023/05/16 14:04:51;;;;;;;2.33;0.90;;;;;;;;;;5067170;28;20036;-80
2023/05/16 14:07:17;;;;;;;1.33;0.50;;;14.90;99.90;;;;;;5063542;28;20059;-79
2023/05/16 14:09:44;;;;;;;1.20;0.50;;;16.40;99.90;;;;;;5066166;28;20029;-82
2023/05/16 14:12:10;;;;;;;1.30;0.85;;;;;;;;;;5046155;28;20029;-80
2023/05/16 14:14:36;;;;;;;0.85;0.45;;;;;;;;;;5062014;28;20032;-80
2023/05/16 14:17:03;;;;;;;2.03;0.45;;;;;;;;;;5032744;28;20029;-79
2023/05/16 14:19:29;;;;;;;5.18;0.63;;;;;;;;;;5061217;28;20017;-79
2023/05/16 14:21:55;;;;;;;1.30;0.57;;;;;;;;;;5060849;28;20476;-80
2023/05/16 14:24:21;;;;;;;4.60;0.52;;;;;;;;;;5054270;28;20546;-80
2023/05/16 14:26:47;;;;;;;1.23;0.88;;;;;;;;;;5051422;28;20032;-79
2023/05/16 14:29:13;;;;;;;1.90;0.52;;;;;;;;;;5046670;28;20028;-79
2023/05/16 14:31:40;;;;;;;3.58;0.47;;;;;;;;;;5045650;28;20069;-80
2023/05/16 14:34:05;;;;;;;2.08;0.43;;;;;;;;;;5046875;28;21510;-79
2023/05/16 14:36:31;;;;;;;1.65;0.57;;;;;;;;;;5053197;28;20033;-81
2023/05/16 14:38:58;;;;;;;0.60;0.30;;;;;;;;;;5042687;28;20029;-79
2023/05/16 14:41:24;;;;;;;3.05;0.65;;;;;;;;;;5063749;28;20024;-78
2023/05/16 14:43:50;;;;;;;0.95;0.68;;;;;;;;;;5079078;28;20040;-80
2023/05/16 14:46:16;;;;;;;1.45;0.60;;;;;;;;;;5084618;28;20022;-80
2023/05/16 14:48:42;;;;;;;1.75;0.50;;;;;;;;;;5055677;28;20028;-80